sensor_id;sensor_type;location;lat;lon;timestamp;P1;durP1;ratioP1;P2;durP2;ratioP2
40367;SDS011;26075;43.320;21.920;2023-07-13T00:02:40;9.77;;;5.85;;
40367;SDS011;26075;43.320;21.920;2023-07-13T00:07:41;10.15;;;5.30;;
40367;SDS011;26075;43.320;21.920;2023-07-13T00:12:43;8.63;;;5.13;;
40367;SDS011;26075;43.320;21.920;2023-07-13T00:17:44;9.73;;;5.63;;
40367;SDS011;26075;43.320;21.920;2023-07-13T00:22:45;12.77;;;7.20;;
40367;SDS011;26075;43.320;21.920;2023-07-13T00:27:47;10.65;;;5.72;;
40367;SDS011;26075;43.320;21.920;2023-07-13T00:32:48;9.07;;;5.82;;
40367;SDS011;26075;43.320;21.920;2023-07-13T00:37:49;10.05;;;5.35;;
40367;SDS011;26075;43.320;21.920;2023-07-13T00:42:53;7.53;;;5.70;;
40367;SDS011;26075;43.320;21.920;2023-07-13T00:47:54;10.35;;;4.82;;
40367;SDS011;26075;43.320;21.920;2023-07-13T00:53:06;10.10;;;5.57;;
40367;SDS011;26075;43.320;21.920;2023-07-13T00:58:08;9.63;;;6.30;;
40367;SDS011;26075;43.320;21.920;2023-07-13T01:03:09;8.05;;;5.20;;
40367;SDS011;26075;43.320;21.920;2023-07-13T01:08:10;9.20;;;4.82;;
40367;SDS011;26075;43.320;21.920;2023-07-13T01:13:11;8.85;;;6.28;;
40367;SDS011;26075;43.320;21.920;2023-07-13T01:18:17;14.10;;;7.95;;
40367;SDS011;26075;43.320;21.920;2023-07-13T01:23:18;14.95;;;5.88;;
40367;SDS011;26075;43.320;21.920;2023-07-13T01:28:20;9.43;;;5.90;;
40367;SDS011;26075;43.320;21.920;2023-07-13T01:33:23;8.23;;;5.32;;
40367;SDS011;26075;43.320;21.920;2023-07-13T01:38:24;8.13;;;5.25;;
40367;SDS011;26075;43.320;21.920;2023-07-13T01:43:36;13.40;;;6.40;;
40367;SDS011;26075;43.320;21.920;2023-07-13T01:48:37;10.77;;;6.03;;
40367;SDS011;26075;43.320;21.920;2023-07-13T01:53:38;9.70;;;5.45;;
40367;SDS011;26075;43.320;21.920;2023-07-13T01:58:39;8.82;;;5.80;;
40367;SDS011;26075;43.320;21.920;2023-07-13T02:03:40;8.13;;;4.85;;
40367;SDS011;26075;43.320;21.920;2023-07-13T02:08:41;8.48;;;5.38;;
40367;SDS011;26075;43.320;21.920;2023-07-13T02:13:42;7.90;;;5.20;;
40367;SDS011;26075;43.320;21.920;2023-07-13T02:18:43;8.15;;;5.30;;
40367;SDS011;26075;43.320;21.920;2023-07-13T02:23:45;9.57;;;5.15;;
40367;SDS011;26075;43.320;21.920;2023-07-13T02:28:46;7.10;;;4.97;;
40367;SDS011;26075;43.320;21.920;2023-07-13T02:33:47;7.63;;;5.38;;
40367;SDS011;26075;43.320;21.920;2023-07-13T02:38:49;12.35;;;5.63;;
40367;SDS011;26075;43.320;21.920;2023-07-13T02:43:50;9.60;;;5.20;;
40367;SDS011;26075;43.320;21.920;2023-07-13T02:48:54;9.35;;;5.55;;
40367;SDS011;26075;43.320;21.920;2023-07-13T02:53:58;9.27;;;5.10;;
40367;SDS011;26075;43.320;21.920;2023-07-13T02:58:59;8.55;;;5.93;;
40367;SDS011;26075;43.320;21.920;2023-07-13T03:04:01;7.25;;;4.78;;
40367;SDS011;26075;43.320;21.920;2023-07-13T03:09:02;12.48;;;5.88;;
40367;SDS011;26075;43.320;21.920;2023-07-13T03:14:04;7.95;;;4.93;;
40367;SDS011;26075;43.320;21.920;2023-07-13T03:19:05;10.02;;;5.57;;
40367;SDS011;26075;43.320;21.920;2023-07-13T03:24:06;7.97;;;5.20;;
40367;SDS011;26075;43.320;21.920;2023-07-13T03:29:08;11.02;;;5.47;;
40367;SDS011;26075;43.320;21.920;2023-07-13T03:34:09;14.88;;;6.03;;
40367;SDS011;26075;43.320;21.920;2023-07-13T03:39:10;13.15;;;6.30;;
40367;SDS011;26075;43.320;21.920;2023-07-13T03:44:11;8.77;;;5.50;;
40367;SDS011;26075;43.320;21.920;2023-07-13T03:49:12;14.35;;;6.00;;
40367;SDS011;26075;43.320;21.920;2023-07-13T03:54:13;12.75;;;5.80;;
40367;SDS011;26075;43.320;21.920;2023-07-13T03:59:25;9.60;;;6.28;;
40367;SDS011;26075;43.320;21.920;2023-07-13T04:04:26;7.95;;;5.25;;
40367;SDS011;26075;43.320;21.920;2023-07-13T04:09:27;10.88;;;5.53;;
40367;SDS011;26075;43.320;21.920;2023-07-13T04:14:29;10.27;;;5.65;;
40367;SDS011;26075;43.320;21.920;2023-07-13T04:19:30;10.48;;;5.82;;
40367;SDS011;26075;43.320;21.920;2023-07-13T04:24:43;10.13;;;5.65;;
40367;SDS011;26075;43.320;21.920;2023-07-13T04:29:44;10.00;;;5.68;;
40367;SDS011;26075;43.320;21.920;2023-07-13T04:34:45;8.90;;;6.00;;
40367;SDS011;26075;43.320;21.920;2023-07-13T04:39:46;9.32;;;6.13;;
40367;SDS011;26075;43.320;21.920;2023-07-13T04:44:50;8.98;;;6.45;;
40367;SDS011;26075;43.320;21.920;2023-07-13T04:49:52;9.82;;;6.00;;
40367;SDS011;26075;43.320;21.920;2023-07-13T04:54:55;9.60;;;5.82;;
40367;SDS011;26075;43.320;21.920;2023-07-13T05:00:02;11.85;;;5.82;;
40367;SDS011;26075;43.320;21.920;2023-07-13T05:05:06;9.90;;;6.10;;
40367;SDS011;26075;43.320;21.920;2023-07-13T05:10:07;9.82;;;6.00;;
40367;SDS011;26075;43.320;21.920;2023-07-13T05:15:09;9.38;;;6.03;;
40367;SDS011;26075;43.320;21.920;2023-07-13T05:20:10;12.77;;;6.40;;
40367;SDS011;26075;43.320;21.920;2023-07-13T05:25:11;9.90;;;5.90;;
40367;SDS011;26075;43.320;21.920;2023-07-13T05:30:12;12.65;;;5.68;;
40367;SDS011;26075;43.320;21.920;2023-07-13T05:35:14;13.90;;;5.80;;
40367;SDS011;26075;43.320;21.920;2023-07-13T05:40:15;11.10;;;6.43;;
40367;SDS011;26075;43.320;21.920;2023-07-13T05:45:16;12.98;;;6.53;;
40367;SDS011;26075;43.320;21.920;2023-07-13T05:50:17;10.23;;;6.00;;
40367;SDS011;26075;43.320;21.920;2023-07-13T05:55:19;11.27;;;5.93;;
40367;SDS011;26075;43.320;21.920;2023-07-13T06:00:20;10.32;;;6.10;;
40367;SDS011;26075;43.320;21.920;2023-07-13T06:05:21;15.07;;;5.80;;
40367;SDS011;26075;43.320;21.920;2023-07-13T06:10:23;10.30;;;6.25;;
40367;SDS011;26075;43.320;21.920;2023-07-13T06:15:24;8.70;;;6.00;;
40367;SDS011;26075;43.320;21.920;2023-07-13T06:20:25;17.40;;;7.53;;
40367;SDS011;26075;43.320;21.920;2023-07-13T06:25:26;13.10;;;7.35;;
40367;SDS011;26075;43.320;21.920;2023-07-13T06:30:27;15.73;;;10.35;;
40367;SDS011;26075;43.320;21.920;2023-07-13T06:35:28;20.33;;;10.85;;
40367;SDS011;26075;43.320;21.920;2023-07-13T06:40:30;12.10;;;9.25;;
40367;SDS011;26075;43.320;21.920;2023-07-13T06:45:32;12.88;;;8.05;;
40367;SDS011;26075;43.320;21.920;2023-07-13T06:50:36;11.48;;;6.88;;
40367;SDS011;26075;43.320;21.920;2023-07-13T06:55:37;12.45;;;6.72;;
40367;SDS011;26075;43.320;21.920;2023-07-13T07:00:38;12.98;;;6.82;;
40367;SDS011;26075;43.320;21.920;2023-07-13T07:05:40;10.55;;;6.22;;
40367;SDS011;26075;43.320;21.920;2023-07-13T07:10:41;8.13;;;5.72;;
40367;SDS011;26075;43.320;21.920;2023-07-13T07:15:42;10.95;;;5.80;;
40367;SDS011;26075;43.320;21.920;2023-07-13T07:20:43;10.00;;;5.93;;
40367;SDS011;26075;43.320;21.920;2023-07-13T07:25:44;12.45;;;6.15;;
40367;SDS011;26075;43.320;21.920;2023-07-13T07:30:46;14.68;;;5.78;;
40367;SDS011;26075;43.320;21.920;2023-07-13T07:35:47;9.68;;;6.28;;
40367;SDS011;26075;43.320;21.920;2023-07-13T07:40:48;8.90;;;6.45;;
40367;SDS011;26075;43.320;21.920;2023-07-13T07:45:49;8.73;;;5.85;;
40367;SDS011;26075;43.320;21.920;2023-07-13T07:50:50;14.57;;;6.22;;
40367;SDS011;26075;43.320;21.920;2023-07-13T07:55:51;9.63;;;5.90;;
40367;SDS011;26075;43.320;21.920;2023-07-13T08:00:52;10.00;;;6.20;;
40367;SDS011;26075;43.320;21.920;2023-07-13T08:05:54;9.18;;;6.20;;
40367;SDS011;26075;43.320;21.920;2023-07-13T08:10:55;11.48;;;6.03;;
40367;SDS011;26075;43.320;21.920;2023-07-13T08:15:56;9.23;;;7.03;;
40367;SDS011;26075;43.320;21.920;2023-07-13T08:20:57;11.60;;;6.57;;
40367;SDS011;26075;43.320;21.920;2023-07-13T08:25:58;10.27;;;6.82;;
40367;SDS011;26075;43.320;21.920;2023-07-13T08:31:05;12.98;;;7.30;;
40367;SDS011;26075;43.320;21.920;2023-07-13T08:36:07;10.63;;;6.65;;
40367;SDS011;26075;43.320;21.920;2023-07-13T08:41:12;11.93;;;6.55;;
40367;SDS011;26075;43.320;21.920;2023-07-13T08:51:31;10.07;;;6.40;;
40367;SDS011;26075;43.320;21.920;2023-07-13T08:56:34;10.30;;;6.28;;
40367;SDS011;26075;43.320;21.920;2023-07-13T09:06:58;9.95;;;6.53;;
40367;SDS011;26075;43.320;21.920;2023-07-13T09:12:02;11.18;;;6.05;;
40367;SDS011;26075;43.320;21.920;2023-07-13T09:17:08;11.27;;;6.55;;
40367;SDS011;26075;43.320;21.920;2023-07-13T09:22:13;14.27;;;6.45;;
40367;SDS011;26075;43.320;21.920;2023-07-13T09:27:20;13.65;;;7.20;;
40367;SDS011;26075;43.320;21.920;2023-07-13T09:32:22;10.18;;;5.68;;
40367;SDS011;26075;43.320;21.920;2023-07-13T09:37:27;12.70;;;6.03;;
40367;SDS011;26075;43.320;21.920;2023-07-13T09:47:30;13.82;;;6.00;;
40367;SDS011;26075;43.320;21.920;2023-07-13T09:52:40;10.00;;;5.45;;
40367;SDS011;26075;43.320;21.920;2023-07-13T09:57:42;9.45;;;5.60;;
40367;SDS011;26075;43.320;21.920;2023-07-13T10:02:49;8.52;;;4.95;;
40367;SDS011;26075;43.320;21.920;2023-07-13T10:07:58;10.85;;;5.90;;
40367;SDS011;26075;43.320;21.920;2023-07-13T10:12:59;10.32;;;6.00;;
40367;SDS011;26075;43.320;21.920;2023-07-13T10:18:00;10.88;;;5.95;;
40367;SDS011;26075;43.320;21.920;2023-07-13T10:23:02;10.75;;;5.90;;
40367;SDS011;26075;43.320;21.920;2023-07-13T10:28:25;9.00;;;5.45;;
40367;SDS011;26075;43.320;21.920;2023-07-13T10:33:30;14.35;;;5.85;;
40367;SDS011;26075;43.320;21.920;2023-07-13T10:38:31;11.80;;;6.03;;
40367;SDS011;26075;43.320;21.920;2023-07-13T10:43:33;9.70;;;5.40;;
40367;SDS011;26075;43.320;21.920;2023-07-13T10:48:45;12.15;;;6.63;;
40367;SDS011;26075;43.320;21.920;2023-07-13T10:53:47;9.95;;;5.95;;
40367;SDS011;26075;43.320;21.920;2023-07-13T10:59:10;9.77;;;6.30;;
40367;SDS011;26075;43.320;21.920;2023-07-13T11:04:12;11.55;;;7.47;;
40367;SDS011;26075;43.320;21.920;2023-07-13T11:14:39;12.63;;;7.63;;
40367;SDS011;26075;43.320;21.920;2023-07-13T11:19:42;13.27;;;7.15;;
40367;SDS011;26075;43.320;21.920;2023-07-13T11:24:56;18.27;;;8.13;;
40367;SDS011;26075;43.320;21.920;2023-07-13T11:35:26;14.65;;;8.30;;
40367;SDS011;26075;43.320;21.920;2023-07-13T11:40:27;16.70;;;7.90;;
40367;SDS011;26075;43.320;21.920;2023-07-13T11:45:30;18.27;;;7.47;;
40367;SDS011;26075;43.320;21.920;2023-07-13T11:50:31;15.07;;;7.82;;
40367;SDS011;26075;43.320;21.920;2023-07-13T11:55:33;13.90;;;7.40;;
40367;SDS011;26075;43.320;21.920;2023-07-13T12:00:38;17.20;;;7.40;;
40367;SDS011;26075;43.320;21.920;2023-07-13T12:05:54;14.48;;;7.70;;
40367;SDS011;26075;43.320;21.920;2023-07-13T12:10:58;16.00;;;7.50;;
40367;SDS011;26075;43.320;21.920;2023-07-13T12:16:00;12.20;;;7.05;;
40367;SDS011;26075;43.320;21.920;2023-07-13T12:21:04;12.68;;;7.78;;
40367;SDS011;26075;43.320;21.920;2023-07-13T12:26:07;12.43;;;7.70;;
40367;SDS011;26075;43.320;21.920;2023-07-13T12:32:09;17.92;;;7.72;;
40367;SDS011;26075;43.320;21.920;2023-07-13T12:36:48;12.23;;;7.03;;
40367;SDS011;26075;43.320;21.920;2023-07-13T12:41:50;13.27;;;7.45;;
40367;SDS011;26075;43.320;21.920;2023-07-13T12:46:53;14.43;;;7.65;;
40367;SDS011;26075;43.320;21.920;2023-07-13T12:51:58;11.70;;;7.07;;
40367;SDS011;26075;43.320;21.920;2023-07-13T12:57:04;9.55;;;7.25;;
40367;SDS011;26075;43.320;21.920;2023-07-13T13:02:30;17.05;;;7.97;;
40367;SDS011;26075;43.320;21.920;2023-07-13T13:07:31;19.05;;;8.18;;
40367;SDS011;26075;43.320;21.920;2023-07-13T13:12:38;10.00;;;6.93;;
40367;SDS011;26075;43.320;21.920;2023-07-13T13:17:39;15.07;;;7.50;;
40367;SDS011;26075;43.320;21.920;2023-07-13T13:22:47;12.75;;;7.63;;
40367;SDS011;26075;43.320;21.920;2023-07-13T13:27:48;11.77;;;7.28;;
40367;SDS011;26075;43.320;21.920;2023-07-13T13:32:49;13.05;;;7.40;;
40367;SDS011;26075;43.320;21.920;2023-07-13T13:37:50;9.45;;;7.00;;
40367;SDS011;26075;43.320;21.920;2023-07-13T13:42:53;12.15;;;7.32;;
40367;SDS011;26075;43.320;21.920;2023-07-13T13:47:56;12.40;;;6.83;;
40367;SDS011;26075;43.320;21.920;2023-07-13T13:52:57;13.93;;;7.45;;
40367;SDS011;26075;43.320;21.920;2023-07-13T13:57:58;11.40;;;6.75;;
40367;SDS011;26075;43.320;21.920;2023-07-13T14:02:59;9.88;;;6.85;;
40367;SDS011;26075;43.320;21.920;2023-07-13T14:08:04;12.48;;;7.30;;
40367;SDS011;26075;43.320;21.920;2023-07-13T14:13:28;16.00;;;8.15;;
40367;SDS011;26075;43.320;21.920;2023-07-13T14:18:30;13.82;;;7.70;;
40367;SDS011;26075;43.320;21.920;2023-07-13T14:23:43;10.90;;;7.50;;
40367;SDS011;26075;43.320;21.920;2023-07-13T14:28:46;18.57;;;7.57;;
40367;SDS011;26075;43.320;21.920;2023-07-13T14:33:47;18.17;;;8.18;;
40367;SDS011;26075;43.320;21.920;2023-07-13T14:38:49;12.13;;;8.18;;
40367;SDS011;26075;43.320;21.920;2023-07-13T14:43:50;12.13;;;8.20;;
40367;SDS011;26075;43.320;21.920;2023-07-13T14:48:59;15.23;;;8.13;;
40367;SDS011;26075;43.320;21.920;2023-07-13T14:54:02;13.20;;;7.28;;
40367;SDS011;26075;43.320;21.920;2023-07-13T14:59:04;13.00;;;7.50;;
40367;SDS011;26075;43.320;21.920;2023-07-13T15:04:05;16.05;;;7.55;;
40367;SDS011;26075;43.320;21.920;2023-07-13T15:09:08;12.73;;;7.70;;
40367;SDS011;26075;43.320;21.920;2023-07-13T15:14:09;14.07;;;8.10;;
40367;SDS011;26075;43.320;21.920;2023-07-13T15:19:11;10.48;;;8.07;;
40367;SDS011;26075;43.320;21.920;2023-07-13T15:24:12;13.63;;;8.50;;
40367;SDS011;26075;43.320;21.920;2023-07-13T15:29:19;15.18;;;7.85;;
40367;SDS011;26075;43.320;21.920;2023-07-13T15:34:20;12.90;;;7.88;;
40367;SDS011;26075;43.320;21.920;2023-07-13T15:39:24;12.93;;;7.70;;
40367;SDS011;26075;43.320;21.920;2023-07-13T15:44:29;14.57;;;8.48;;
40367;SDS011;26075;43.320;21.920;2023-07-13T15:49:31;12.80;;;8.75;;
40367;SDS011;26075;43.320;21.920;2023-07-13T15:54:32;14.40;;;8.30;;
40367;SDS011;26075;43.320;21.920;2023-07-13T15:59:33;15.95;;;7.70;;
40367;SDS011;26075;43.320;21.920;2023-07-13T16:04:34;12.68;;;7.75;;
40367;SDS011;26075;43.320;21.920;2023-07-13T16:09:35;14.60;;;8.07;;
40367;SDS011;26075;43.320;21.920;2023-07-13T16:14:37;13.57;;;8.05;;
40367;SDS011;26075;43.320;21.920;2023-07-13T16:19:39;12.73;;;8.20;;
40367;SDS011;26075;43.320;21.920;2023-07-13T16:24:40;12.18;;;8.40;;
40367;SDS011;26075;43.320;21.920;2023-07-13T16:29:41;11.80;;;7.93;;
40367;SDS011;26075;43.320;21.920;2023-07-13T16:34:44;11.85;;;8.20;;
40367;SDS011;26075;43.320;21.920;2023-07-13T16:39:54;12.57;;;8.00;;
40367;SDS011;26075;43.320;21.920;2023-07-13T16:44:58;12.15;;;7.70;;
40367;SDS011;26075;43.320;21.920;2023-07-13T16:49:59;11.35;;;7.90;;
40367;SDS011;26075;43.320;21.920;2023-07-13T17:00:06;11.05;;;7.50;;
40367;SDS011;26075;43.320;21.920;2023-07-13T17:05:17;11.23;;;7.72;;
40367;SDS011;26075;43.320;21.920;2023-07-13T17:10:19;11.82;;;7.25;;
40367;SDS011;26075;43.320;21.920;2023-07-13T17:15:23;13.23;;;8.40;;
40367;SDS011;26075;43.320;21.920;2023-07-13T17:20:26;12.30;;;7.45;;
40367;SDS011;26075;43.320;21.920;2023-07-13T17:25:27;12.70;;;9.30;;
40367;SDS011;26075;43.320;21.920;2023-07-13T17:30:30;13.02;;;7.18;;
40367;SDS011;26075;43.320;21.920;2023-07-13T17:35:32;11.50;;;7.93;;
40367;SDS011;26075;43.320;21.920;2023-07-13T17:40:34;11.73;;;7.75;;
40367;SDS011;26075;43.320;21.920;2023-07-13T17:45:35;12.82;;;7.45;;
40367;SDS011;26075;43.320;21.920;2023-07-13T17:50:37;11.32;;;7.45;;
40367;SDS011;26075;43.320;21.920;2023-07-13T17:55:44;12.25;;;8.15;;
40367;SDS011;26075;43.320;21.920;2023-07-13T18:00:50;16.60;;;8.15;;
40367;SDS011;26075;43.320;21.920;2023-07-13T18:05:52;13.07;;;8.18;;
40367;SDS011;26075;43.320;21.920;2023-07-13T18:10:55;12.35;;;7.53;;
40367;SDS011;26075;43.320;21.920;2023-07-13T18:15:57;16.23;;;9.13;;
40367;SDS011;26075;43.320;21.920;2023-07-13T18:20:59;13.80;;;8.43;;
40367;SDS011;26075;43.320;21.920;2023-07-13T18:26:00;13.88;;;8.70;;
40367;SDS011;26075;43.320;21.920;2023-07-13T18:31:01;16.83;;;8.38;;
40367;SDS011;26075;43.320;21.920;2023-07-13T18:36:03;17.58;;;9.00;;
40367;SDS011;26075;43.320;21.920;2023-07-13T18:41:09;14.38;;;8.95;;
40367;SDS011;26075;43.320;21.920;2023-07-13T18:46:20;20.45;;;10.57;;
40367;SDS011;26075;43.320;21.920;2023-07-13T18:51:22;28.88;;;11.15;;
40367;SDS011;26075;43.320;21.920;2023-07-13T18:56:38;17.00;;;9.73;;
40367;SDS011;26075;43.320;21.920;2023-07-13T19:01:39;19.85;;;11.55;;
40367;SDS011;26075;43.320;21.920;2023-07-13T19:06:40;18.77;;;10.57;;
40367;SDS011;26075;43.320;21.920;2023-07-13T19:17:16;20.37;;;10.83;;
40367;SDS011;26075;43.320;21.920;2023-07-13T19:22:18;31.08;;;17.35;;
40367;SDS011;26075;43.320;21.920;2023-07-13T19:27:19;29.48;;;17.85;;
40367;SDS011;26075;43.320;21.920;2023-07-13T19:32:37;27.05;;;13.27;;
40367;SDS011;26075;43.320;21.920;2023-07-13T19:37:38;29.23;;;14.85;;
40367;SDS011;26075;43.320;21.920;2023-07-13T19:48:18;32.13;;;15.43;;
40367;SDS011;26075;43.320;21.920;2023-07-13T19:53:33;24.02;;;13.55;;
40367;SDS011;26075;43.320;21.920;2023-07-13T19:58:34;21.63;;;12.23;;
40367;SDS011;26075;43.320;21.920;2023-07-13T20:09:10;22.02;;;14.02;;
40367;SDS011;26075;43.320;21.920;2023-07-13T20:14:20;19.63;;;13.15;;
40367;SDS011;26075;43.320;21.920;2023-07-13T20:19:22;22.90;;;13.20;;
40367;SDS011;26075;43.320;21.920;2023-07-13T20:30:11;27.02;;;14.48;;
40367;SDS011;26075;43.320;21.920;2023-07-13T20:40:51;48.65;;;19.13;;
40367;SDS011;26075;43.320;21.920;2023-07-13T20:45:57;37.00;;;20.58;;
40367;SDS011;26075;43.320;21.920;2023-07-13T20:50:59;33.22;;;21.67;;
40367;SDS011;26075;43.320;21.920;2023-07-13T20:56:04;29.02;;;16.02;;
40367;SDS011;26075;43.320;21.920;2023-07-13T21:01:28;23.75;;;14.90;;
40367;SDS011;26075;43.320;21.920;2023-07-13T21:06:31;23.95;;;14.60;;
40367;SDS011;26075;43.320;21.920;2023-07-13T21:11:33;23.48;;;13.75;;
40367;SDS011;26075;43.320;21.920;2023-07-13T21:16:41;22.25;;;13.73;;
40367;SDS011;26075;43.320;21.920;2023-07-13T21:21:49;21.88;;;13.82;;
40367;SDS011;26075;43.320;21.920;2023-07-13T21:27:08;23.20;;;14.23;;
40367;SDS011;26075;43.320;21.920;2023-07-13T21:32:13;23.63;;;13.75;;
40367;SDS011;26075;43.320;21.920;2023-07-13T21:37:16;20.63;;;14.20;;
40367;SDS011;26075;43.320;21.920;2023-07-13T21:47:41;22.75;;;14.35;;
40367;SDS011;26075;43.320;21.920;2023-07-13T21:52:53;23.38;;;13.05;;
40367;SDS011;26075;43.320;21.920;2023-07-13T21:57:54;22.10;;;12.52;;
40367;SDS011;26075;43.320;21.920;2023-07-13T22:03:04;24.52;;;15.07;;
40367;SDS011;26075;43.320;21.920;2023-07-13T22:08:09;23.65;;;12.35;;
40367;SDS011;26075;43.320;21.920;2023-07-13T22:18:51;17.67;;;12.30;;
40367;SDS011;26075;43.320;21.920;2023-07-13T22:23:52;23.00;;;13.40;;
40367;SDS011;26075;43.320;21.920;2023-07-13T22:28:55;19.92;;;12.23;;
40367;SDS011;26075;43.320;21.920;2023-07-13T22:33:57;18.50;;;13.20;;
40367;SDS011;26075;43.320;21.920;2023-07-13T22:38:58;20.10;;;13.05;;
40367;SDS011;26075;43.320;21.920;2023-07-13T22:43:59;20.73;;;12.88;;
40367;SDS011;26075;43.320;21.920;2023-07-13T22:49:01;20.95;;;12.82;;
40367;SDS011;26075;43.320;21.920;2023-07-13T22:54:12;25.30;;;12.93;;
40367;SDS011;26075;43.320;21.920;2023-07-13T22:59:14;23.83;;;12.23;;
40367;SDS011;26075;43.320;21.920;2023-07-13T23:04:23;20.67;;;11.25;;
40367;SDS011;26075;43.320;21.920;2023-07-13T23:09:26;18.63;;;11.57;;
40367;SDS011;26075;43.320;21.920;2023-07-13T23:14:45;19.50;;;10.65;;
40367;SDS011;26075;43.320;21.920;2023-07-13T23:19:46;16.27;;;11.13;;
40367;SDS011;26075;43.320;21.920;2023-07-13T23:30:27;19.85;;;12.40;;
40367;SDS011;26075;43.320;21.920;2023-07-13T23:35:29;14.60;;;11.70;;
40367;SDS011;26075;43.320;21.920;2023-07-13T23:40:32;16.85;;;10.70;;
40367;SDS011;26075;43.320;21.920;2023-07-13T23:45:33;16.25;;;11.38;;
